Time,TemperatureF,DewpointF,PressureIn,WindDirection,WindDirectionDegrees,WindSpeedMPH,WindSpeedGustMPH,Humidity,HourlyPrecipIn,Conditions,Clouds,dailyrainin,SoftwareType,DateUTC
2013-10-28 00:01:00,68.3,65.6,30.08,NE,42,0.0,0.0,91,0.00,CLR,,0.00,WeatherDisplay:10.37,2013-10-28 04:01:00,
2013-10-28 00:02:00,68.3,65.6,30.08,NE,42,0.0,0.0,91,0.00,CLR,,0.00,WeatherDisplay:10.37,2013-10-28 04:02:00,
2013-10-28 00:07:00,68.2,65.5,30.08,NE,42,0.0,0.0,91,0.00,CLR,,0.00,WeatherDisplay:10.37,2013-10-28 04:07:00,
2013-10-28 00:12:00,68.2,65.8,30.08,NE,42,0.0,0.0,92,0.00,CLR,,0.00,WeatherDisplay:10.37,2013-10-28 04:12:00,
2013-10-28 00:17:00,68.3,65.9,30.08,NE,42,0.0,0.0,92,0.00,CLR,,0.00,WeatherDisplay:10.37,2013-10-28 04:17:00,
2013-10-28 00:22:00,68.3,65.9,30.08,NE,42,0.0,0.0,92,0.00,CLR,,0.00,WeatherDisplay:10.37,2013-10-28 04:22:00,
2013-10-28 00:27:00,68.3,65.9,30.08,NE,42,0.0,0.0,92,0.00,CLR,,0.00,WeatherDisplay:10.37,2013-10-28 04:27:00,
2013-10-28 00:32:00,68.3,65.9,30.08,NE,42,0.0,0.0,92,0.00,CLR,,0.00,WeatherDisplay:10.37,2013-10-28 04:32:00,
2013-10-28 00:37:00,68.1,65.4,30.08,NE,42,0.0,0.0,91,0.00,CLR,,0.00,WeatherDisplay:10.37,2013-10-28 04:37:00,
2013-10-28 00:42:00,67.9,64.9,30.08,NE,42,0.0,0.0,90,0.00,CLR,,0.00,WeatherDisplay:10.37,2013-10-28 04:42:00,
2013-10-28 00:47:00,67.7,65.0,30.08,NE,42,0.0,0.0,91,0.00,CLR,,0.00,WeatherDisplay:10.37,2013-10-28 04:47:00,
2013-10-28 00:52:00,67.7,65.0,30.08,NE,42,0.0,0.0,91,0.00,CLR,,0.00,WeatherDisplay:10.37,2013-10-28 04:52:00,
2013-10-28 00:57:00,67.8,65.1,30.07,NE,42,0.0,0.0,91,0.00,CLR,,0.00,WeatherDisplay:10.37,2013-10-28 04:57:00,
2013-10-28 01:02:00,68.0,65.3,30.07,NE,42,0.0,0.0,91,0.00,CLR,,0.00,WeatherDisplay:10.37,2013-10-28 05:02:00,
2013-10-28 01:07:00,68.0,65.0,30.07,NE,42,0.0,0.0,90,0.00,CLR,,0.00,WeatherDisplay:10.37,2013-10-28 05:07:00,
2013-10-28 01:12:00,68.0,65.3,30.07,NE,42,0.0,0.0,91,0.00,CLR,,0.00,WeatherDisplay:10.37,2013-10-28 05:12:00,
2013-10-28 01:17:00,67.7,64.7,30.07,NE,42,0.0,0.0,90,0.00,CLR,,0.00,WeatherDisplay:10.37,2013-10-28 05:17:00,
2013-10-28 01:22:00,67.6,64.6,30.07,NE,42,0.0,0.0,90,0.00,CLR,,0.00,WeatherDisplay:10.37,2013-10-28 05:22:00,
2013-10-28 01:27:00,67.6,64.9,30.07,NE,42,0.0,0.0,91,0.00,CLR,,0.00,WeatherDisplay:10.37,2013-10-28 05:27:00,
2013-10-28 01:32:00,67.6,64.9,30.07,NE,42,0.0,0.0,91,0.00,CLR,,0.00,WeatherDisplay:10.37,2013-10-28 05:32:00,
2013-10-28 01:37:00,67.6,64.9,30.07,NE,42,0.0,0.0,91,0.00,CLR,,0.00,WeatherDisplay:10.37,2013-10-28 05:37:00,
2013-10-28 01:42:00,67.6,64.9,30.06,NE,42,0.0,0.0,91,0.00,CLR,,0.00,WeatherDisplay:10.37,2013-10-28 05:42:00,
2013-10-28 01:47:00,67.6,65.2,30.06,NE,42,0.0,0.0,92,0.00,CLR,,0.00,WeatherDisplay:10.37,2013-10-28 05:47:00,
2013-10-28 01:52:00,67.5,64.8,30.07,NE,42,0.0,0.0,91,0.00,CLR,,0.00,WeatherDisplay:10.37,2013-10-28 05:52:00,
2013-10-28 01:57:00,67.3,64.6,30.07,NE,42,0.0,0.0,91,0.00,CLR,,0.00,WeatherDisplay:10.37,2013-10-28 05:57:00,
2013-10-28 02:02:00,67.2,64.8,30.06,NE,42,0.0,0.0,92,0.00,CLR,,0.00,WeatherDisplay:10.37,2013-10-28 06:02:00,
2013-10-28 02:07:00,67.3,64.9,30.06,NE,42,0.0,0.0,92,0.00,CLR,,0.00,WeatherDisplay:10.37,2013-10-28 06:07:00,
2013-10-28 02:12:00,67.2,64.8,30.06,NE,42,0.0,0.0,92,0.00,CLR,,0.00,WeatherDisplay:10.37,2013-10-28 06:12:00,
2013-10-28 02:17:00,67.2,64.8,30.06,NE,42,0.0,0.0,92,0.00,CLR,,0.00,WeatherDisplay:10.37,2013-10-28 06:17:00,
2013-10-28 02:22:00,67.2,65.1,30.06,NE,42,0.0,0.0,93,0.00,CLR,,0.00,WeatherDisplay:10.37,2013-10-28 06:22:00,
2013-10-28 02:27:00,67.3,65.2,30.06,NE,42,0.0,0.0,93,0.00,CLR,,0.00,WeatherDisplay:10.37,2013-10-28 06:27:00,
2013-10-28 02:32:00,67.2,64.8,30.06,NE,42,0.0,0.0,92,0.00,CLR,,0.00,WeatherDisplay:10.37,2013-10-28 06:32:00,
2013-10-28 02:37:00,67.2,65.1,30.06,NE,42,0.0,0.0,93,0.00,CLR,,0.00,WeatherDisplay:10.37,2013-10-28 06:37:00,
2013-10-28 02:42:00,67.2,65.1,30.05,NE,42,0.0,0.0,93,0.00,CLR,,0.00,WeatherDisplay:10.37,2013-10-28 06:42:00,
2013-10-28 02:47:00,67.2,65.1,30.05,NE,42,0.0,0.0,93,0.00,CLR,,0.00,WeatherDisplay:10.37,2013-10-28 06:47:00,
2013-10-28 02:52:00,67.3,65.2,30.05,NE,42,0.0,0.0,93,0.00,CLR,,0.00,WeatherDisplay:10.37,2013-10-28 06:52:00,
2013-10-28 02:57:00,67.2,65.1,30.05,NE,42,0.0,0.0,93,0.00,CLR,,0.00,WeatherDisplay:10.37,2013-10-28 06:57:00,
2013-10-28 03:02:00,67.2,65.1,30.05,NE,42,0.0,0.0,93,0.00,CLR,,0.00,WeatherDisplay:10.37,2013-10-28 07:02:00,
2013-10-28 03:08:00,67.2,65.1,30.05,NE,42,0.0,0.0,93,0.00,CLR,,0.00,WeatherDisplay:10.37,2013-10-28 07:08:00,
2013-10-28 03:13:00,67.3,65.2,30.05,NE,42,0.0,0.0,93,0.00,CLR,,0.00,WeatherDisplay:10.37,2013-10-28 07:13:00,
2013-10-28 03:18:00,67.2,65.1,30.05,NE,42,0.0,0.0,93,0.00,CLR,,0.00,WeatherDisplay:10.37,2013-10-28 07:18:00,
2013-10-28 03:23:00,67.0,64.9,30.05,NE,42,0.0,0.0,93,0.00,CLR,,0.00,WeatherDisplay:10.37,2013-10-28 07:23:00,
2013-10-28 03:28:00,66.9,64.8,30.04,NE,42,0.0,0.0,93,0.00,CLR,,0.00,WeatherDisplay:10.37,2013-10-28 07:28:00,
2013-10-28 03:33:00,66.8,64.7,30.05,NE,42,0.0,0.0,93,0.00,CLR,,0.00,WeatherDisplay:10.37,2013-10-28 07:33:00,
2013-10-28 03:38:00,66.9,65.1,30.05,NE,42,0.0,0.0,94,0.00,CLR,,0.00,WeatherDisplay:10.37,2013-10-28 07:38:00,
2013-10-28 03:43:00,67.0,65.2,30.04,NE,42,0.0,0.0,94,0.00,CLR,,0.00,WeatherDisplay:10.37,2013-10-28 07:43:00,
2013-10-28 03:48:00,66.9,65.1,30.05,NE,42,0.0,0.0,94,0.00,CLR,,0.00,WeatherDisplay:10.37,2013-10-28 07:48:00,
2013-10-28 03:53:00,66.9,65.1,30.04,NE,42,0.0,0.0,94,0.00,CLR,,0.00,WeatherDisplay:10.37,2013-10-28 07:53:00,
2013-10-28 03:58:00,66.7,64.9,30.04,NE,42,0.0,0.0,94,0.00,CLR,,0.00,WeatherDisplay:10.37,2013-10-28 07:58:00,
2013-10-28 04:03:00,66.7,64.9,30.04,NE,42,0.0,1.2,94,0.00,CLR,,0.00,WeatherDisplay:10.37,2013-10-28 08:03:00,
2013-10-28 04:08:00,66.8,65.0,30.04,NE,42,0.0,0.0,94,0.00,CLR,,0.00,WeatherDisplay:10.37,2013-10-28 08:08:00,
2013-10-28 04:13:00,66.8,65.0,30.04,NE,42,0.0,0.0,94,0.00,CLR,,0.00,WeatherDisplay:10.37,2013-10-28 08:13:00,
2013-10-28 04:18:00,66.7,64.9,30.04,NE,42,0.0,0.0,94,0.00,CLR,,0.00,WeatherDisplay:10.37,2013-10-28 08:18:00,
2013-10-28 04:23:00,66.6,64.8,30.04,NE,42,0.0,0.0,94,0.00,CLR,,0.00,WeatherDisplay:10.37,2013-10-28 08:23:00,
2013-10-28 04:28:00,66.5,64.7,30.04,NE,42,0.0,0.0,94,0.00,CLR,,0.00,WeatherDisplay:10.37,2013-10-28 08:28:00,
2013-10-28 04:33:00,66.5,64.7,30.04,NE,42,0.0,0.0,94,0.00,CLR,,0.00,WeatherDisplay:10.37,2013-10-28 08:33:00,
2013-10-28 04:38:00,66.6,64.8,30.04,NE,42,0.0,0.0,94,0.00,CLR,,0.00,WeatherDisplay:10.37,2013-10-28 08:38:00,
2013-10-28 04:43:00,66.6,64.8,30.04,NE,42,0.0,0.0,94,0.00,CLR,,0.00,WeatherDisplay:10.37,2013-10-28 08:43:00,
2013-10-28 04:48:00,66.7,64.9,30.04,NE,42,0.0,0.0,94,0.00,CLR,,0.00,WeatherDisplay:10.37,2013-10-28 08:48:00,
2013-10-28 04:53:00,66.8,65.3,30.05,NE,42,0.0,0.0,95,0.00,CLR,,0.00,WeatherDisplay:10.37,2013-10-28 08:53:00,
2013-10-28 04:58:00,66.7,64.9,30.05,NE,42,0.0,0.0,94,0.00,CLR,,0.00,WeatherDisplay:10.37,2013-10-28 08:58:00,
2013-10-28 05:03:00,66.6,64.8,30.05,NE,42,0.0,0.0,94,0.00,CLR,,0.00,WeatherDisplay:10.37,2013-10-28 09:03:00,
2013-10-28 05:08:00,66.6,64.8,30.05,NE,42,0.0,0.0,94,0.00,CLR,,0.00,WeatherDisplay:10.37,2013-10-28 09:08:00,
2013-10-28 05:13:00,66.6,64.8,30.05,NE,42,0.0,0.0,94,0.00,CLR,,0.00,WeatherDisplay:10.37,2013-10-28 09:13:00,
2013-10-28 05:18:00,66.6,64.8,30.05,NE,42,0.0,0.0,94,0.00,CLR,,0.00,WeatherDisplay:10.37,2013-10-28 09:18:00,
2013-10-28 05:23:00,66.5,64.7,30.05,NE,42,0.0,0.0,94,0.00,CLR,,0.00,WeatherDisplay:10.37,2013-10-28 09:23:00,
2013-10-28 05:28:00,66.7,64.9,30.05,NE,42,0.0,0.0,94,0.00,CLR,,0.00,WeatherDisplay:10.37,2013-10-28 09:28:00,
2013-10-28 05:33:00,66.6,64.8,30.05,NE,42,0.0,0.0,94,0.00,CLR,,0.00,WeatherDisplay:10.37,2013-10-28 09:33:00,
2013-10-28 05:38:00,66.5,64.7,30.05,NE,42,0.0,0.0,94,0.00,CLR,,0.00,WeatherDisplay:10.37,2013-10-28 09:38:00,
2013-10-28 05:43:00,66.5,64.7,30.05,NE,42,0.0,0.0,94,0.00,CLR,,0.00,WeatherDisplay:10.37,2013-10-28 09:43:00,
2013-10-28 05:48:00,66.5,64.7,30.05,NE,42,0.0,0.0,94,0.00,CLR,,0.00,WeatherDisplay:10.37,2013-10-28 09:48:00,
2013-10-28 05:53:00,66.5,64.7,30.05,NE,42,0.5,1.2,94,0.00,CLR,,0.00,WeatherDisplay:10.37,2013-10-28 09:53:00,
2013-10-28 05:58:00,66.6,64.8,30.05,NE,42,0.0,0.0,94,0.00,CLR,,0.00,WeatherDisplay:10.37,2013-10-28 09:58:00,
2013-10-28 06:03:00,66.7,64.9,30.05,NE,42,0.0,1.2,94,0.00,CLR,,0.00,WeatherDisplay:10.37,2013-10-28 10:03:00,
2013-10-28 06:08:00,66.7,64.9,30.05,NE,42,0.0,0.0,94,0.00,CLR,,0.00,WeatherDisplay:10.37,2013-10-28 10:08:00,
2013-10-28 06:13:00,66.8,65.0,30.06,NE,42,0.0,0.0,94,0.00,CLR,,0.00,WeatherDisplay:10.37,2013-10-28 10:13:00,
2013-10-28 06:18:00,66.7,64.9,30.06,NE,42,0.0,0.0,94,0.00,CLR,,0.00,WeatherDisplay:10.37,2013-10-28 10:18:00,
2013-10-28 06:24:00,66.6,64.8,30.06,NE,42,0.0,0.0,94,0.00,CLR,,0.00,WeatherDisplay:10.37,2013-10-28 10:24:00,
2013-10-28 06:29:00,66.5,64.7,30.06,NE,42,0.0,0.0,94,0.00,CLR,,0.00,WeatherDisplay:10.37,2013-10-28 10:29:00,
2013-10-28 06:34:00,66.5,64.7,30.06,NE,42,0.0,0.0,94,0.00,CLR,,0.00,WeatherDisplay:10.37,2013-10-28 10:34:00,
2013-10-28 06:39:00,66.6,64.8,30.06,NE,42,0.0,0.0,94,0.00,CLR,,0.00,WeatherDisplay:10.37,2013-10-28 10:39:00,
2013-10-28 06:44:00,66.7,64.9,30.06,NE,42,0.0,0.0,94,0.00,CLR,,0.00,WeatherDisplay:10.37,2013-10-28 10:44:00,
2013-10-28 06:49:00,66.8,65.3,30.06,NE,42,0.0,0.0,95,0.00,CLR,,0.00,WeatherDisplay:10.37,2013-10-28 10:49:00,
2013-10-28 06:54:00,66.7,64.9,30.07,NE,42,0.0,0.0,94,0.00,CLR,,0.00,WeatherDisplay:10.37,2013-10-28 10:54:00,
2013-10-28 06:59:00,66.6,64.8,30.07,NE,42,0.0,0.0,94,0.00,CLR,,0.00,WeatherDisplay:10.37,2013-10-28 10:59:00,
2013-10-28 07:04:00,66.6,64.8,30.07,NE,42,0.0,0.0,94,0.00,CLR,,0.00,WeatherDisplay:10.37,2013-10-28 11:04:00,
2013-10-28 07:09:00,66.7,64.9,30.07,NE,42,0.0,1.2,94,0.00,CLR,,0.00,WeatherDisplay:10.37,2013-10-28 11:09:00,
2013-10-28 07:14:00,66.7,64.9,30.08,NE,42,0.0,0.0,94,0.00,CLR,,0.00,WeatherDisplay:10.37,2013-10-28 11:14:00,
2013-10-28 07:19:00,66.6,64.8,30.08,NE,42,0.0,0.0,94,0.00,CLR,,0.00,WeatherDisplay:10.37,2013-10-28 11:19:00,
2013-10-28 07:24:00,66.6,64.8,30.08,NE,42,0.0,1.2,94,0.00,CLR,,0.00,WeatherDisplay:10.37,2013-10-28 11:24:00,
2013-10-28 07:29:00,66.5,64.7,30.08,NE,42,0.0,0.0,94,0.00,CLR,,0.00,WeatherDisplay:10.37,2013-10-28 11:29:00,
2013-10-28 07:34:00,66.5,64.7,30.08,NE,42,0.0,0.0,94,0.00,CLR,,0.00,WeatherDisplay:10.37,2013-10-28 11:34:00,
2013-10-28 07:39:00,66.5,64.7,30.08,NE,42,0.0,0.0,94,0.00,CLR,,0.00,WeatherDisplay:10.37,2013-10-28 11:39:00,
2013-10-28 07:44:00,66.5,64.7,30.08,NE,42,0.5,1.2,94,0.00,CLR,,0.00,WeatherDisplay:10.37,2013-10-28 11:44:00,
2013-10-28 07:49:00,66.8,65.3,30.09,NE,42,0.3,1.2,95,0.00,CLR,,0.00,WeatherDisplay:10.37,2013-10-28 11:49:00,
2013-10-28 07:54:00,67.0,65.5,30.09,NE,42,0.0,1.2,95,0.00,CLR,,0.00,WeatherDisplay:10.37,2013-10-28 11:54:00,
2013-10-28 07:59:00,67.1,65.3,30.09,NE,42,0.0,0.0,94,0.00,CLR,,0.00,WeatherDisplay:10.37,2013-10-28 11:59:00,
2013-10-28 08:04:00,67.6,66.1,30.09,NE,42,0.0,0.0,95,0.00,CLR,,0.00,WeatherDisplay:10.37,2013-10-28 12:04:00,
2013-10-28 08:09:00,67.9,66.4,30.09,NE,42,0.0,0.0,95,0.00,CLR,,0.00,WeatherDisplay:10.37,2013-10-28 12:09:00,
2013-10-28 08:14:00,68.4,66.9,30.09,NE,42,0.0,0.0,95,0.00,CLR,,0.00,WeatherDisplay:10.37,2013-10-28 12:14:00,
2013-10-28 08:19:00,68.9,67.4,30.09,NE,42,0.2,1.2,95,0.00,CLR,,0.00,WeatherDisplay:10.37,2013-10-28 12:19:00,
2013-10-28 08:24:00,69.4,67.3,30.09,NE,42,0.0,0.0,93,0.00,CLR,,0.00,WeatherDisplay:10.37,2013-10-28 12:24:00,
2013-10-28 08:29:00,70.1,68.0,30.09,NE,42,0.1,1.2,93,0.00,CLR,,0.00,WeatherDisplay:10.37,2013-10-28 12:29:00,
2013-10-28 08:34:00,70.6,67.8,30.09,NE,42,0.0,0.0,91,0.00,CLR,,0.00,WeatherDisplay:10.37,2013-10-28 12:34:00,
2013-10-28 08:39:00,71.2,68.1,30.10,NE,42,0.0,0.0,90,0.00,CLR,,0.00,WeatherDisplay:10.37,2013-10-28 12:39:00,
2013-10-28 08:44:00,71.8,68.1,30.10,NE,42,0.4,1.2,88,0.00,CLR,,0.00,WeatherDisplay:10.37,2013-10-28 12:44:00,
2013-10-28 08:49:00,72.3,68.5,30.10,NE,42,0.0,0.0,88,0.00,CLR,,0.00,WeatherDisplay:10.37,2013-10-28 12:49:00,
2013-10-28 08:54:00,72.8,68.4,30.10,NE,42,0.3,1.2,86,0.00,CLR,,0.00,WeatherDisplay:10.37,2013-10-28 12:54:00,
2013-10-28 08:59:00,73.5,69.1,30.10,NE,42,0.0,0.0,86,0.00,CLR,,0.00,WeatherDisplay:10.37,2013-10-28 12:59:00,
2013-10-28 09:04:00,74.1,69.3,30.10,NE,42,0.0,0.0,85,0.00,CLR,,0.00,WeatherDisplay:10.37,2013-10-28 13:04:00,
2013-10-28 09:09:00,74.8,69.6,30.10,NE,42,0.2,1.2,84,0.00,CLR,,0.00,WeatherDisplay:10.37,2013-10-28 13:09:00,
2013-10-28 09:14:00,75.5,68.9,30.10,NE,42,1.0,1.2,80,0.00,CLR,,0.00,WeatherDisplay:10.37,2013-10-28 13:14:00,
2013-10-28 09:19:00,75.9,68.5,30.10,NE,42,0.9,2.3,78,0.00,CLR,,0.00,WeatherDisplay:10.37,2013-10-28 13:19:00,
2013-10-28 09:24:00,76.0,67.5,30.10,NE,42,1.4,3.5,75,0.00,CLR,,0.00,WeatherDisplay:10.37,2013-10-28 13:24:00,
2013-10-28 09:29:00,76.3,67.8,30.10,NE,42,3.3,4.6,75,0.00,CLR,,0.00,WeatherDisplay:10.37,2013-10-28 13:29:00,
2013-10-28 09:34:00,76.7,67.8,30.11,NE,42,0.6,1.2,74,0.00,CLR,,0.00,WeatherDisplay:10.37,2013-10-28 13:34:00,
2013-10-28 09:39:00,77.0,67.7,30.11,NE,42,2.2,2.3,73,0.00,CLR,,0.00,WeatherDisplay:10.37,2013-10-28 13:39:00,
2013-10-28 09:44:00,77.5,68.6,30.11,East,88,2.5,4.6,74,0.00,CLR,,0.00,WeatherDisplay:10.37,2013-10-28 13:44:00,
2013-10-28 09:49:00,77.9,68.1,30.10,East,91,5.3,8.1,72,0.00,CLR,,0.00,WeatherDisplay:10.37,2013-10-28 13:49:00,
2013-10-28 09:54:00,78.3,68.1,30.11,NE,41,7.2,9.2,71,0.00,CLR,,0.00,WeatherDisplay:10.37,2013-10-28 13:54:00,
2013-10-28 09:59:00,78.4,67.8,30.11,ENE,64,5.9,10.4,70,0.00,CLR,,0.00,WeatherDisplay:10.37,2013-10-28 13:59:00,
2013-10-28 10:04:00,78.4,67.8,30.11,ENE,78,3.7,9.2,70,0.00,CLR,,0.00,WeatherDisplay:10.37,2013-10-28 14:04:00,
2013-10-28 10:09:00,78.7,68.1,30.11,NNE,19,6.2,8.1,70,0.00,CLR,,0.00,WeatherDisplay:10.37,2013-10-28 14:09:00,
2013-10-28 10:14:00,78.9,68.3,30.12,NE,40,2.1,4.6,70,0.00,CLR,,0.00,WeatherDisplay:10.37,2013-10-28 14:14:00,
2013-10-28 10:19:00,78.7,67.7,30.12,ENE,61,4.5,8.1,69,0.00,CLR,,0.00,WeatherDisplay:10.37,2013-10-28 14:19:00,
2013-10-28 10:24:00,78.5,67.9,30.12,NNE,24,3.8,4.6,70,0.00,CLR,,0.00,WeatherDisplay:10.37,2013-10-28 14:24:00,
2013-10-28 10:29:00,78.6,68.4,30.12,NNE,32,2.9,4.6,71,0.00,CLR,,0.00,WeatherDisplay:10.37,2013-10-28 14:29:00,
2013-10-28 10:34:00,78.8,67.8,30.12,NNE,26,4.0,6.9,69,0.00,CLR,,0.00,WeatherDisplay:10.37,2013-10-28 14:34:00,
2013-10-28 10:39:00,79.1,68.5,30.12,NE,55,4.3,5.8,70,0.00,CLR,,0.00,WeatherDisplay:10.37,2013-10-28 14:39:00,
2013-10-28 10:44:00,79.5,69.7,30.13,NNE,20,1.6,3.5,72,0.00,CLR,,0.00,WeatherDisplay:10.37,2013-10-28 14:44:00,
2013-10-28 10:49:00,79.7,67.8,30.13,ENE,76,4.5,5.8,67,0.00,CLR,,0.00,WeatherDisplay:10.37,2013-10-28 14:49:00,
2013-10-28 10:54:00,79.9,68.0,30.13,NE,35,2.3,3.5,67,0.00,CLR,,0.00,WeatherDisplay:10.37,2013-10-28 14:54:00,
2013-10-28 10:59:00,80.0,66.3,30.12,NNE,23,5.3,6.0,63,0.00,CLR,,0.00,WeatherDisplay:10.37,2013-10-28 14:59:00,
2013-10-28 11:04:00,80.0,67.2,30.12,NNE,31,5.5,9.2,65,0.00,CLR,,0.00,WeatherDisplay:10.37,2013-10-28 15:04:00,
2013-10-28 11:09:00,80.1,67.7,30.12,East,85,3.6,3.6,66,0.00,CLR,,0.00,WeatherDisplay:10.37,2013-10-28 15:09:00,
2013-10-28 11:14:00,80.2,67.8,30.12,NE,35,4.2,8.1,66,0.00,CLR,,0.00,WeatherDisplay:10.37,2013-10-28 15:14:00,
2013-10-28 11:19:00,80.0,67.2,30.12,NE,42,1.1,4.6,65,0.00,CLR,,0.00,WeatherDisplay:10.37,2013-10-28 15:19:00,
2013-10-28 11:24:00,80.3,67.5,30.12,NE,46,1.8,3.5,65,0.00,CLR,,0.00,WeatherDisplay:10.37,2013-10-28 15:24:00,
2013-10-28 11:29:00,80.7,68.3,30.12,NE,54,4.1,8.1,66,0.00,CLR,,0.00,WeatherDisplay:10.37,2013-10-28 15:29:00,
2013-10-28 11:34:00,80.6,66.8,30.12,North,11,3.2,3.5,63,0.00,CLR,,0.00,WeatherDisplay:10.37,2013-10-28 15:34:00,
2013-10-28 11:39:00,80.6,66.8,30.12,NE,44,4.0,6.9,63,0.00,CLR,,0.00,WeatherDisplay:10.37,2013-10-28 15:39:00,
2013-10-28 11:44:00,81.0,66.8,30.12,ENE,77,4.4,6.9,62,0.00,CLR,,0.00,WeatherDisplay:10.37,2013-10-28 15:44:00,
2013-10-28 11:49:00,81.0,66.8,30.12,NE,56,6.3,10.4,62,0.00,CLR,,0.00,WeatherDisplay:10.37,2013-10-28 15:49:00,
2013-10-28 11:54:00,81.0,67.2,30.12,ENE,71,5.5,6.9,63,0.00,CLR,,0.00,WeatherDisplay:10.37,2013-10-28 15:54:00,
2013-10-28 11:59:00,81.2,66.0,30.12,NNE,21,8.4,11.5,60,0.00,CLR,,0.00,WeatherDisplay:10.37,2013-10-28 15:59:00,
2013-10-28 12:04:00,81.2,66.9,30.12,East,91,4.2,5.8,62,0.00,CLR,,0.00,WeatherDisplay:10.37,2013-10-28 16:04:00,
2013-10-28 12:09:00,81.1,67.8,30.11,NNE,29,2.0,4.6,64,0.00,CLR,,0.00,WeatherDisplay:10.37,2013-10-28 16:09:00,
2013-10-28 12:14:00,80.8,67.0,30.11,NNE,33,5.5,9.2,63,0.00,CLR,,0.00,WeatherDisplay:10.37,2013-10-28 16:14:00,
2013-10-28 12:20:00,80.8,66.6,30.11,NE,53,7.2,9.2,62,0.00,CLR,,0.00,WeatherDisplay:10.37,2013-10-28 16:20:00,
2013-10-28 12:25:00,81.0,65.8,30.11,East,82,3.7,8.1,60,0.00,CLR,,0.00,WeatherDisplay:10.37,2013-10-28 16:25:00,
2013-10-28 12:30:00,81.2,65.5,30.11,ENE,71,4.8,8.1,59,0.00,CLR,,0.00,WeatherDisplay:10.37,2013-10-28 16:30:00,
2013-10-28 12:35:00,81.5,66.8,30.11,NE,48,6.6,8.0,61,0.00,CLR,,0.00,WeatherDisplay:10.37,2013-10-28 16:35:00,
2013-10-28 12:40:00,81.6,67.3,30.10,NNE,26,3.4,5.8,62,0.00,CLR,,0.00,WeatherDisplay:10.37,2013-10-28 16:40:00,
2013-10-28 12:45:00,81.2,65.5,30.10,NNE,30,3.0,5.0,59,0.00,CLR,,0.00,WeatherDisplay:10.37,2013-10-28 16:45:00,
2013-10-28 12:50:00,81.5,68.1,30.10,East,87,2.5,3.5,64,0.00,CLR,,0.00,WeatherDisplay:10.37,2013-10-28 16:50:00,
2013-10-28 12:55:00,81.5,67.2,30.10,ENE,61,6.4,9.2,62,0.00,CLR,,0.00,WeatherDisplay:10.37,2013-10-28 16:55:00,
2013-10-28 13:00:00,81.8,66.6,30.10,NNW,337,5.4,5.8,60,0.00,CLR,,0.00,WeatherDisplay:10.37,2013-10-28 17:00:00,
2013-10-28 13:05:00,81.9,66.6,30.10,ENE,60,1.5,5.0,60,0.00,CLR,,0.00,WeatherDisplay:10.37,2013-10-28 17:05:00,
2013-10-28 13:10:00,81.8,66.6,30.09,ENE,74,4.2,6.9,60,0.00,CLR,,0.00,WeatherDisplay:10.37,2013-10-28 17:10:00,
2013-10-28 13:15:00,81.6,66.8,30.09,ENE,59,5.3,9.2,61,0.00,CLR,,0.00,WeatherDisplay:10.37,2013-10-28 17:15:00,
2013-10-28 13:20:00,81.8,67.5,30.09,ENE,67,5.1,5.8,62,0.00,CLR,,0.00,WeatherDisplay:10.37,2013-10-28 17:20:00,
2013-10-28 13:25:00,81.8,67.5,30.09,ENE,61,4.4,8.1,62,0.00,CLR,,0.00,WeatherDisplay:10.37,2013-10-28 17:25:00,
2013-10-28 13:30:00,81.5,66.3,30.09,ENE,70,5.3,8.1,60,0.00,CLR,,0.00,WeatherDisplay:10.37,2013-10-28 17:30:00,
2013-10-28 13:35:00,81.7,65.5,30.09,NE,41,7.8,9.0,58,0.00,CLR,,0.00,WeatherDisplay:10.37,2013-10-28 17:35:00,
2013-10-28 13:40:00,81.6,65.9,30.09,ENE,69,3.2,10.4,59,0.00,CLR,,0.00,WeatherDisplay:10.37,2013-10-28 17:40:00,
2013-10-28 13:45:00,81.9,67.1,30.08,NE,48,5.9,6.0,61,0.00,CLR,,0.00,WeatherDisplay:10.37,2013-10-28 17:45:00,
2013-10-28 13:50:00,81.9,65.7,30.08,NE,38,5.1,8.1,58,0.00,CLR,,0.00,WeatherDisplay:10.37,2013-10-28 17:50:00,
2013-10-28 13:55:00,82.2,65.4,30.08,East,97,4.6,6.9,57,0.00,CLR,,0.00,WeatherDisplay:10.37,2013-10-28 17:55:00,
2013-10-28 14:00:00,82.0,65.3,30.08,ENE,78,4.4,13.8,57,0.00,CLR,,0.00,WeatherDisplay:10.37,2013-10-28 18:00:00,
2013-10-28 14:05:00,82.0,65.8,30.08,SE,129,1.9,6.0,58,0.00,CLR,,0.00,WeatherDisplay:10.37,2013-10-28 18:05:00,
2013-10-28 14:10:00,82.1,65.4,30.08,East,99,6.8,7.0,57,0.00,CLR,,0.00,WeatherDisplay:10.37,2013-10-28 18:10:00,
2013-10-28 14:15:00,82.0,66.7,30.08,NE,55,4.0,4.6,60,0.00,CLR,,0.00,WeatherDisplay:10.37,2013-10-28 18:15:00,
2013-10-28 14:20:00,81.9,66.6,30.07,ESE,103,3.9,5.8,60,0.00,CLR,,0.00,WeatherDisplay:10.37,2013-10-28 18:20:00,
2013-10-28 14:25:00,81.8,66.1,30.07,East,85,5.6,9.2,59,0.00,CLR,,0.00,WeatherDisplay:10.37,2013-10-28 18:25:00,
2013-10-28 14:30:00,81.6,65.9,30.07,NE,44,3.7,6.9,59,0.00,CLR,,0.00,WeatherDisplay:10.37,2013-10-28 18:30:00,
2013-10-28 14:35:00,81.8,67.0,30.07,NE,53,4.8,8.1,61,0.00,CLR,,0.00,WeatherDisplay:10.37,2013-10-28 18:35:00,
2013-10-28 14:40:00,81.8,68.4,30.07,East,80,6.2,12.7,64,0.00,CLR,,0.00,WeatherDisplay:10.37,2013-10-28 18:40:00,
2013-10-28 14:45:00,81.8,66.6,30.07,ESE,123,2.6,4.6,60,0.00,CLR,,0.00,WeatherDisplay:10.37,2013-10-28 18:45:00,
2013-10-28 14:50:00,81.9,67.6,30.06,NNE,31,1.0,3.5,62,0.00,CLR,,0.00,WeatherDisplay:10.37,2013-10-28 18:50:00,
2013-10-28 14:55:00,82.0,67.7,30.06,NE,40,4.5,8.1,62,0.00,CLR,,0.00,WeatherDisplay:10.37,2013-10-28 18:55:00,
2013-10-28 15:00:00,81.9,68.1,30.06,East,86,2.9,3.5,63,0.00,CLR,,0.00,WeatherDisplay:10.37,2013-10-28 19:00:00,
2013-10-28 15:05:00,81.8,67.0,30.06,East,95,5.2,6.9,61,0.00,CLR,,0.00,WeatherDisplay:10.37,2013-10-28 19:05:00,
2013-10-28 15:10:00,81.7,66.9,30.06,NNE,28,4.2,10.4,61,0.00,CLR,,0.00,WeatherDisplay:10.37,2013-10-28 19:10:00,
2013-10-28 15:15:00,81.8,67.0,30.06,ENE,57,3.5,4.6,61,0.00,CLR,,0.00,WeatherDisplay:10.37,2013-10-28 19:15:00,
2013-10-28 15:20:00,81.6,66.4,30.06,NE,53,3.9,5.8,60,0.00,CLR,,0.00,WeatherDisplay:10.37,2013-10-28 19:20:00,
2013-10-28 15:25:00,81.3,66.6,30.06,NNE,27,4.6,9.2,61,0.00,CLR,,0.00,WeatherDisplay:10.37,2013-10-28 19:25:00,
2013-10-28 15:30:00,81.6,66.4,30.06,NE,45,5.9,8.1,60,0.00,CLR,,0.00,WeatherDisplay:10.37,2013-10-28 19:30:00,
2013-10-28 15:35:00,81.5,65.8,30.06,NE,42,4.2,7.0,59,0.00,CLR,,0.00,WeatherDisplay:10.37,2013-10-28 19:35:00,
2013-10-28 15:40:00,81.6,66.4,30.06,NE,55,6.9,9.2,60,0.00,CLR,,0.00,WeatherDisplay:10.37,2013-10-28 19:40:00,
2013-10-28 15:45:00,81.8,66.1,30.06,NE,38,4.8,10.4,59,0.00,CLR,,0.00,WeatherDisplay:10.37,2013-10-28 19:45:00,
2013-10-28 15:50:00,81.8,65.6,30.06,East,88,6.9,9.2,58,0.00,CLR,,0.00,WeatherDisplay:10.37,2013-10-28 19:50:00,
2013-10-28 15:55:00,81.7,65.5,30.06,NE,38,2.2,7.0,58,0.00,CLR,,0.00,WeatherDisplay:10.37,2013-10-28 19:55:00,
2013-10-28 16:00:00,81.7,64.5,30.06,ENE,66,6.7,9.2,56,0.00,CLR,,0.00,WeatherDisplay:10.37,2013-10-28 20:00:00,
2013-10-28 16:05:00,81.8,65.1,30.06,ENE,78,7.1,9.2,57,0.00,CLR,,0.00,WeatherDisplay:10.37,2013-10-28 20:05:00,
2013-10-28 16:10:00,81.6,64.9,30.06,NNE,27,6.7,10.4,57,0.00,CLR,,0.00,WeatherDisplay:10.37,2013-10-28 20:10:00,
2013-10-28 16:15:00,81.6,63.9,30.06,ENE,67,2.7,6.9,55,0.00,CLR,,0.00,WeatherDisplay:10.37,2013-10-28 20:15:00,
2013-10-28 16:20:00,81.7,64.0,30.06,NE,46,3.6,9.2,55,0.00,CLR,,0.00,WeatherDisplay:10.37,2013-10-28 20:20:00,
2013-10-28 16:25:00,81.7,63.4,30.06,East,80,3.1,6.9,54,0.00,CLR,,0.00,WeatherDisplay:10.37,2013-10-28 20:25:00,
2013-10-28 16:30:00,81.6,63.3,30.06,East,92,3.3,4.6,54,0.00,CLR,,0.00,WeatherDisplay:10.37,2013-10-28 20:30:00,
2013-10-28 16:35:00,81.6,64.4,30.06,ENE,73,4.3,8.1,56,0.00,CLR,,0.00,WeatherDisplay:10.37,2013-10-28 20:35:00,
2013-10-28 16:40:00,81.5,63.3,30.06,NE,45,5.3,8.1,54,0.00,CLR,,0.00,WeatherDisplay:10.37,2013-10-28 20:40:00,
2013-10-28 16:45:00,81.5,63.8,30.06,ENE,65,5.8,10.4,55,0.00,CLR,,0.00,WeatherDisplay:10.37,2013-10-28 20:45:00,
2013-10-28 16:50:00,81.5,62.2,30.07,NNE,32,7.8,11.5,52,0.00,CLR,,0.00,WeatherDisplay:10.37,2013-10-28 20:50:00,
2013-10-28 16:55:00,81.3,63.1,30.07,NNE,24,3.9,5.8,54,0.00,CLR,,0.00,WeatherDisplay:10.37,2013-10-28 20:55:00,
2013-10-28 17:00:00,81.4,64.2,30.07,ENE,72,3.3,10.4,56,0.00,CLR,,0.00,WeatherDisplay:10.37,2013-10-28 21:00:00,
2013-10-28 17:05:00,81.2,63.0,30.07,NE,37,6.2,8.1,54,0.00,CLR,,0.00,WeatherDisplay:10.37,2013-10-28 21:05:00,
2013-10-28 17:10:00,81.1,62.9,30.07,ENE,57,2.7,9.2,54,0.00,CLR,,0.00,WeatherDisplay:10.37,2013-10-28 21:10:00,
2013-10-28 17:15:00,81.1,62.9,30.07,ESE,105,2.7,3.5,54,0.00,CLR,,0.00,WeatherDisplay:10.37,2013-10-28 21:15:00,
2013-10-28 17:20:00,81.1,62.9,30.08,ENE,60,5.2,9.2,54,0.00,CLR,,0.00,WeatherDisplay:10.37,2013-10-28 21:20:00,
2013-10-28 17:25:00,81.0,62.8,30.08,East,83,5.3,8.1,54,0.00,CLR,,0.00,WeatherDisplay:10.37,2013-10-28 21:25:00,
2013-10-28 17:30:00,80.8,62.1,30.08,ENE,72,8.0,15.0,53,0.00,CLR,,0.00,WeatherDisplay:10.37,2013-10-28 21:30:00,
2013-10-28 17:35:00,80.7,63.0,30.07,NNE,29,3.9,5.8,55,0.00,CLR,,0.00,WeatherDisplay:10.37,2013-10-28 21:35:00,
2013-10-28 17:40:00,80.6,62.9,30.08,NNE,31,7.3,11.5,55,0.00,CLR,,0.00,WeatherDisplay:10.37,2013-10-28 21:40:00,
2013-10-28 17:45:00,80.5,63.9,30.08,NE,40,3.7,8.1,57,0.00,CLR,,0.00,WeatherDisplay:10.37,2013-10-28 21:45:00,
2013-10-28 17:50:00,80.4,63.3,30.08,ENE,58,5.5,8.1,56,0.00,CLR,,0.00,WeatherDisplay:10.37,2013-10-28 21:50:00,
2013-10-28 17:55:00,80.3,64.2,30.08,NE,42,2.0,3.5,58,0.00,CLR,,0.00,WeatherDisplay:10.37,2013-10-28 21:55:00,
2013-10-28 18:00:00,80.1,63.5,30.08,NE,53,4.2,7.0,57,0.00,CLR,,0.00,WeatherDisplay:10.37,2013-10-28 22:00:00,
2013-10-28 18:06:00,80.0,63.9,30.08,ENE,65,4.1,4.6,58,0.00,CLR,,0.00,WeatherDisplay:10.37,2013-10-28 22:06:00,
2013-10-28 18:11:00,79.8,63.7,30.08,NE,44,2.2,8.1,58,0.00,CLR,,0.00,WeatherDisplay:10.37,2013-10-28 22:11:00,
2013-10-28 18:16:00,79.7,64.6,30.09,NE,36,4.4,8.1,60,0.00,CLR,,0.00,WeatherDisplay:10.37,2013-10-28 22:16:00,
2013-10-28 18:21:00,79.5,64.4,30.09,NE,41,4.8,8.1,60,0.00,CLR,,0.00,WeatherDisplay:10.37,2013-10-28 22:21:00,
2013-10-28 18:26:00,79.3,64.7,30.09,NNE,28,3.6,5.8,61,0.00,CLR,,0.00,WeatherDisplay:10.37,2013-10-28 22:26:00,
2013-10-28 18:31:00,79.2,65.1,30.09,ENE,65,1.4,4.6,62,0.00,CLR,,0.00,WeatherDisplay:10.37,2013-10-28 22:31:00,
2013-10-28 18:36:00,79.1,65.0,30.09,NNE,26,3.1,6.9,62,0.00,CLR,,0.00,WeatherDisplay:10.37,2013-10-28 22:36:00,
2013-10-28 18:41:00,78.9,65.2,30.09,NE,35,3.4,3.4,63,0.00,CLR,,0.00,WeatherDisplay:10.37,2013-10-28 22:41:00,
2013-10-28 18:46:00,78.7,65.5,30.10,NE,51,2.3,4.6,64,0.00,CLR,,0.00,WeatherDisplay:10.37,2013-10-28 22:46:00,
2013-10-28 18:51:00,78.5,65.8,30.10,NE,36,3.3,3.5,65,0.00,CLR,,0.00,WeatherDisplay:10.37,2013-10-28 22:51:00,
2013-10-28 18:56:00,78.4,65.2,30.09,NE,55,2.1,3.5,64,0.00,CLR,,0.00,WeatherDisplay:10.37,2013-10-28 22:56:00,
2013-10-28 19:01:00,78.3,66.0,30.10,NE,50,0.7,3.5,66,0.00,CLR,,0.00,WeatherDisplay:10.37,2013-10-28 23:01:00,
2013-10-28 19:06:00,78.2,65.9,30.10,NE,43,2.5,4.6,66,0.00,CLR,,0.00,WeatherDisplay:10.37,2013-10-28 23:06:00,
2013-10-28 19:11:00,78.0,66.2,30.10,NE,46,2.0,3.5,67,0.00,CLR,,0.00,WeatherDisplay:10.37,2013-10-28 23:11:00,
2013-10-28 19:16:00,77.8,66.4,30.10,NE,42,1.0,3.5,68,0.00,CLR,,0.00,WeatherDisplay:10.37,2013-10-28 23:16:00,
2013-10-28 19:21:00,77.6,65.8,30.10,NE,42,2.1,3.5,67,0.00,CLR,,0.00,WeatherDisplay:10.37,2013-10-28 23:21:00,
2013-10-28 19:26:00,77.6,66.2,30.09,NE,34,0.6,2.3,68,0.00,CLR,,0.00,WeatherDisplay:10.37,2013-10-28 23:26:00,
2013-10-28 19:31:00,77.5,66.1,30.09,NE,51,0.9,4.6,68,0.00,CLR,,0.00,WeatherDisplay:10.37,2013-10-28 23:31:00,
2013-10-28 19:36:00,77.5,66.1,30.09,NE,36,2.2,5.8,68,0.00,CLR,,0.00,WeatherDisplay:10.37,2013-10-28 23:36:00,
2013-10-28 19:41:00,77.5,66.5,30.09,NE,47,1.9,3.5,69,0.00,CLR,,0.00,WeatherDisplay:10.37,2013-10-28 23:41:00,
2013-10-28 19:46:00,77.3,66.3,30.09,NE,42,1.9,2.3,69,0.00,CLR,,0.00,WeatherDisplay:10.37,2013-10-28 23:46:00,
2013-10-28 19:51:00,77.2,66.2,30.09,NE,44,1.0,2.3,69,0.00,CLR,,0.00,WeatherDisplay:10.37,2013-10-28 23:51:00,
2013-10-28 19:56:00,77.1,66.1,30.10,NE,42,1.9,2.3,69,0.00,CLR,,0.00,WeatherDisplay:10.37,2013-10-28 23:56:00,
2013-10-28 20:01:00,77.0,66.5,30.10,NE,41,1.5,3.5,70,0.00,CLR,,0.00,WeatherDisplay:10.37,2013-10-29 00:01:00,
2013-10-28 20:06:00,76.9,66.8,30.10,NNE,26,1.1,3.5,71,0.00,CLR,,0.00,WeatherDisplay:10.37,2013-10-29 00:06:00,
2013-10-28 20:11:00,76.9,67.2,30.10,NNE,26,0.1,1.2,72,0.00,CLR,,0.00,WeatherDisplay:10.37,2013-10-29 00:11:00,
2013-10-28 20:16:00,76.8,67.1,30.10,NE,37,1.2,3.5,72,0.00,CLR,,0.00,WeatherDisplay:10.37,2013-10-29 00:16:00,
2013-10-28 20:21:00,76.7,67.0,30.11,NE,38,0.9,3.5,72,0.00,CLR,,0.00,WeatherDisplay:10.37,2013-10-29 00:21:00,
2013-10-28 20:26:00,76.6,66.9,30.11,NE,39,0.9,2.3,72,0.00,CLR,,0.00,WeatherDisplay:10.37,2013-10-29 00:26:00,
2013-10-28 20:31:00,76.6,67.3,30.11,NE,39,0.2,1.2,73,0.00,CLR,,0.00,WeatherDisplay:10.37,2013-10-29 00:31:00,
2013-10-28 20:36:00,76.4,67.1,30.11,NE,39,0.3,1.2,73,0.00,CLR,,0.00,WeatherDisplay:10.37,2013-10-29 00:36:00,
2013-10-28 20:41:00,76.2,66.9,30.11,NE,39,2.1,3.5,73,0.00,CLR,,0.00,WeatherDisplay:10.37,2013-10-29 00:41:00,
2013-10-28 20:46:00,76.2,66.9,30.12,NE,39,1.6,3.5,73,0.00,CLR,,0.00,WeatherDisplay:10.37,2013-10-29 00:46:00,
2013-10-28 20:51:00,76.1,67.2,30.12,NE,36,0.2,2.3,74,0.00,CLR,,0.00,WeatherDisplay:10.37,2013-10-29 00:51:00,
2013-10-28 20:56:00,76.1,67.6,30.12,NE,36,0.0,0.0,75,0.00,CLR,,0.00,WeatherDisplay:10.37,2013-10-29 00:56:00,
2013-10-28 21:01:00,75.9,67.4,30.12,NE,36,0.0,0.0,75,0.00,CLR,,0.00,WeatherDisplay:10.37,2013-10-29 01:01:00,
2013-10-28 21:06:00,75.7,67.2,30.12,NE,36,0.3,1.2,75,0.00,CLR,,0.00,WeatherDisplay:10.37,2013-10-29 01:06:00,
2013-10-28 21:11:00,75.6,67.5,30.12,NE,36,0.0,0.0,76,0.00,CLR,,0.00,WeatherDisplay:10.37,2013-10-29 01:11:00,
2013-10-28 21:16:00,75.4,68.1,30.12,NE,36,0.1,1.2,78,0.00,CLR,,0.00,WeatherDisplay:10.37,2013-10-29 01:16:00,
2013-10-28 21:21:00,75.3,67.6,30.12,NE,36,0.0,0.0,77,0.00,CLR,,0.00,WeatherDisplay:10.37,2013-10-29 01:21:00,
2013-10-28 21:26:00,75.2,67.5,30.12,NE,36,0.0,0.0,77,0.00,CLR,,0.00,WeatherDisplay:10.37,2013-10-29 01:26:00,
2013-10-28 21:31:00,75.0,67.7,30.12,NE,36,0.0,0.0,78,0.00,CLR,,0.00,WeatherDisplay:10.37,2013-10-29 01:31:00,
2013-10-28 21:36:00,74.8,68.2,30.12,NE,36,0.0,0.0,80,0.00,CLR,,0.00,WeatherDisplay:10.37,2013-10-29 01:36:00,
2013-10-28 21:41:00,74.5,68.3,30.12,NE,36,0.0,0.0,81,0.00,CLR,,0.00,WeatherDisplay:10.37,2013-10-29 01:41:00,
2013-10-28 21:46:00,74.3,68.1,30.12,NE,36,0.0,0.0,81,0.00,CLR,,0.00,WeatherDisplay:10.37,2013-10-29 01:46:00,
2013-10-28 21:51:00,74.0,67.8,30.13,NE,36,0.0,0.0,81,0.00,CLR,,0.00,WeatherDisplay:10.37,2013-10-29 01:51:00,
2013-10-28 21:56:00,73.7,68.2,30.13,NE,36,0.0,0.0,83,0.00,CLR,,0.00,WeatherDisplay:10.37,2013-10-29 01:56:00,
2013-10-28 22:01:00,73.4,67.9,30.13,NE,36,0.0,0.0,83,0.00,CLR,,0.00,WeatherDisplay:10.37,2013-10-29 02:01:00,
2013-10-28 22:06:00,73.1,68.0,30.13,NE,36,0.0,0.0,84,0.00,CLR,,0.00,WeatherDisplay:10.37,2013-10-29 02:06:00,
2013-10-28 22:11:00,72.9,67.8,30.13,NE,36,0.0,0.0,84,0.00,CLR,,0.00,WeatherDisplay:10.37,2013-10-29 02:11:00,
2013-10-28 22:16:00,72.6,67.5,30.13,NE,36,0.0,0.0,84,0.00,CLR,,0.00,WeatherDisplay:10.37,2013-10-29 02:16:00,
2013-10-28 22:21:00,72.4,67.6,30.13,NE,36,0.0,0.0,85,0.00,CLR,,0.00,WeatherDisplay:10.37,2013-10-29 02:21:00,
2013-10-28 22:26:00,72.2,67.4,30.13,NE,36,0.0,0.0,85,0.00,CLR,,0.00,WeatherDisplay:10.37,2013-10-29 02:26:00,
2013-10-28 22:31:00,72.0,67.9,30.14,NE,36,0.0,0.0,87,0.00,CLR,,0.00,WeatherDisplay:10.37,2013-10-29 02:31:00,
2013-10-28 22:36:00,71.8,67.4,30.13,NE,36,0.0,0.0,86,0.00,CLR,,0.00,WeatherDisplay:10.37,2013-10-29 02:36:00,
2013-10-28 22:41:00,71.6,67.2,30.13,NE,36,0.0,0.0,86,0.00,CLR,,0.00,WeatherDisplay:10.37,2013-10-29 02:41:00,
2013-10-28 22:46:00,71.3,67.2,30.13,NE,36,0.0,0.0,87,0.00,CLR,,0.00,WeatherDisplay:10.37,2013-10-29 02:46:00,
2013-10-28 22:51:00,71.3,67.6,30.13,NE,36,0.0,0.0,88,0.00,CLR,,0.00,WeatherDisplay:10.37,2013-10-29 02:51:00,
2013-10-28 22:56:00,71.1,67.4,30.13,NE,36,0.0,0.0,88,0.00,CLR,,0.00,WeatherDisplay:10.37,2013-10-29 02:56:00,
2013-10-28 23:01:00,71.0,67.3,30.13,NE,36,0.0,0.0,88,0.00,CLR,,0.00,WeatherDisplay:10.37,2013-10-29 03:01:00,
2013-10-28 23:06:00,70.9,67.5,30.13,NE,36,0.0,0.0,89,0.00,CLR,,0.00,WeatherDisplay:10.37,2013-10-29 03:06:00,
2013-10-28 23:11:00,70.8,67.4,30.13,NE,36,0.0,0.0,89,0.00,CLR,,0.00,WeatherDisplay:10.37,2013-10-29 03:11:00,
2013-10-28 23:16:00,70.7,67.3,30.13,NE,36,0.0,0.0,89,0.00,CLR,,0.00,WeatherDisplay:10.37,2013-10-29 03:16:00,
2013-10-28 23:21:00,70.6,67.2,30.13,NE,36,0.0,0.0,89,0.00,CLR,,0.00,WeatherDisplay:10.37,2013-10-29 03:21:00,
2013-10-28 23:26:00,70.5,67.1,30.13,NE,36,0.0,0.0,89,0.00,CLR,,0.00,WeatherDisplay:10.37,2013-10-29 03:26:00,
2013-10-28 23:31:00,70.4,67.3,30.13,NE,36,0.0,0.0,90,0.00,CLR,,0.00,WeatherDisplay:10.37,2013-10-29 03:31:00,
2013-10-28 23:37:00,70.3,67.2,30.12,NE,36,0.0,0.0,90,0.00,CLR,,0.00,WeatherDisplay:10.37,2013-10-29 03:37:00,
2013-10-28 23:42:00,70.1,67.0,30.12,NE,36,0.0,0.0,90,0.00,CLR,,0.00,WeatherDisplay:10.37,2013-10-29 03:42:00,
2013-10-28 23:47:00,70.1,67.0,30.12,NE,36,0.0,0.0,90,0.00,CLR,,0.00,WeatherDisplay:10.37,2013-10-29 03:47:00,
2013-10-28 23:52:00,70.0,67.3,30.12,NE,36,0.0,0.0,91,0.00,CLR,,0.00,WeatherDisplay:10.37,2013-10-29 03:52:00,
2013-10-28 23:57:00,69.9,67.2,30.12,NE,36,0.0,0.0,91,0.00,CLR,,0.00,WeatherDisplay:10.37,2013-10-29 03:57:00,